createdAt,value
2023-03-01T00:01:19.543Z,61.95
2023-03-01T00:03:46.785Z,61.93
2023-03-01T00:06:14.046Z,61.81
2023-03-01T00:08:41.472Z,62.22
2023-03-01T00:11:13.958Z,62.72
2023-03-01T00:13:42.459Z,62.51
2023-03-01T00:16:13.050Z,62.65
2023-03-01T00:18:40.642Z,62.56
2023-03-01T00:21:07.984Z,62.83
2023-03-01T00:23:36.281Z,62.90
2023-03-01T00:26:06.965Z,63.30
2023-03-01T00:28:34.210Z,63.50
2023-03-01T00:31:09.113Z,63.84
2023-03-01T00:33:36.734Z,63.88
2023-03-01T00:36:04.559Z,63.61
2023-03-01T00:38:32.050Z,63.59
2023-03-01T00:41:14.175Z,63.90
2023-03-01T00:43:41.528Z,63.90
2023-03-01T00:46:11.080Z,64.02
2023-03-01T00:48:38.407Z,64.34
2023-03-01T00:51:26.499Z,64.35
2023-03-01T00:53:55.593Z,64.41
2023-03-01T00:56:22.813Z,64.29
2023-03-01T00:58:50.316Z,64.44
2023-03-01T01:01:23.298Z,64.98
2023-03-01T01:03:52.852Z,65.01
2023-03-01T01:06:22.423Z,65.24
2023-03-01T01:08:49.747Z,65.19
2023-03-01T01:11:17.609Z,65.45
2023-03-01T01:13:46.585Z,65.25
2023-03-01T01:16:15.015Z,64.95
2023-03-01T01:18:42.603Z,64.92
2023-03-01T01:21:15.200Z,64.65
2023-03-01T01:23:43.282Z,64.84
2023-03-01T01:26:13.942Z,65.22
2023-03-01T01:28:41.108Z,65.73
2023-03-01T01:31:08.445Z,65.90
2023-03-01T01:33:36.915Z,66.39
2023-03-01T01:36:04.827Z,66.64
2023-03-01T01:38:32.020Z,66.25
2023-03-01T01:40:59.423Z,66.91
2023-03-01T01:43:31.188Z,67.20
2023-03-01T01:46:08.632Z,67.08
2023-03-01T01:48:42.502Z,67.73
2023-03-01T01:51:15.213Z,67.64
2023-03-01T01:53:44.524Z,67.87
2023-03-01T01:56:13.244Z,67.88
2023-03-01T01:58:41.668Z,68.20
2023-03-01T02:01:08.792Z,68.24
2023-03-01T02:03:38.695Z,68.12
2023-03-01T02:06:13.873Z,68.42
2023-03-01T02:08:42.622Z,68.29
2023-03-01T02:11:10.372Z,68.57
2023-03-01T02:13:38.049Z,68.89
2023-03-01T02:16:13.361Z,68.77
2023-03-01T02:18:41.923Z,68.91
2023-03-01T02:21:53.921Z,68.76
2023-03-01T02:24:36.244Z,69.10
2023-03-01T02:27:03.484Z,69.33
2023-03-01T02:29:30.515Z,69.15
2023-03-01T02:31:59.721Z,69.40
2023-03-01T02:34:27.306Z,69.61
2023-03-01T02:37:05.707Z,70.15
2023-03-01T02:39:43.070Z,69.98
2023-03-01T02:42:16.439Z,70.17
2023-03-01T02:44:44.421Z,70.21
2023-03-01T02:47:11.480Z,70.18
2023-03-01T02:49:38.919Z,69.93
2023-03-01T02:52:50.947Z,70.33
2023-03-01T02:55:18.976Z,70.41
2023-03-01T02:57:47.289Z,70.61
2023-03-01T03:00:20.659Z,71.13
2023-03-01T03:02:53.169Z,71.13
2023-03-01T03:05:26.785Z,71.37
2023-03-01T03:07:57.650Z,71.64
2023-03-01T03:10:28.031Z,71.92
2023-03-01T03:13:00.896Z,72.17
2023-03-01T03:15:30.158Z,72.61
2023-03-01T03:17:59.486Z,72.62
2023-03-01T03:20:28.470Z,72.83
2023-03-01T03:22:56.902Z,72.93
2023-03-01T03:25:24.335Z,73.27
2023-03-01T03:27:57.863Z,73.36
2023-03-01T03:30:30.841Z,73.61
2023-03-01T03:32:58.893Z,73.70
2023-03-01T03:35:31.356Z,73.74
2023-03-01T03:38:03.834Z,73.88
2023-03-01T03:40:41.191Z,74.45
2023-03-01T03:43:14.318Z,73.97
2023-03-01T03:45:41.504Z,74.01
2023-03-01T03:48:10.617Z,74.31
2023-03-01T03:50:39.620Z,74.54
2023-03-01T03:53:09.865Z,74.64
2023-03-01T03:55:40.354Z,74.83
2023-03-01T03:58:09.418Z,74.92
2023-03-01T04:00:41.309Z,75.17
2023-03-01T04:03:09.437Z,74.96
2023-03-01T04:05:37.476Z,75.04
2023-03-01T04:08:08.425Z,75.18
2023-03-01T04:10:39.733Z,75.20
2023-03-01T04:13:08.286Z,75.27
2023-03-01T04:15:35.472Z,75.55
2023-03-01T04:18:03.137Z,76.13
2023-03-01T04:20:35.789Z,75.80
2023-03-01T04:23:14.504Z,75.94
2023-03-01T04:25:56.560Z,75.67
2023-03-01T04:28:26.990Z,75.79
2023-03-01T04:30:54.943Z,76.06
2023-03-01T04:33:22.426Z,75.93
2023-03-01T04:35:52.142Z,76.03
2023-03-01T04:38:20.588Z,76.29
2023-03-01T04:40:47.585Z,76.36
2023-03-01T04:43:15.962Z,76.61
2023-03-01T04:45:43.421Z,76.58
2023-03-01T04:48:10.822Z,76.39
2023-03-01T04:50:38.093Z,76.43
2023-03-01T04:53:05.352Z,76.50
2023-03-01T04:55:32.732Z,76.19
2023-03-01T04:58:00.131Z,76.03
2023-03-01T05:00:27.444Z,76.38
2023-03-01T05:02:56.962Z,75.96
2023-03-01T05:05:27.259Z,75.71
2023-03-01T05:07:55.785Z,75.65
2023-03-01T05:10:23.673Z,75.62
2023-03-01T05:12:50.939Z,75.71
2023-03-01T05:15:17.922Z,75.02
2023-03-01T05:17:45.038Z,75.32
2023-03-01T05:20:12.385Z,74.92
2023-03-01T05:22:39.801Z,74.35
2023-03-01T05:25:08.318Z,74.42
2023-03-01T05:27:36.247Z,73.93
2023-03-01T05:30:14.482Z,73.80
2023-03-01T05:32:49.913Z,73.64
2023-03-01T05:35:19.585Z,73.19
2023-03-01T05:37:48.757Z,73.13
2023-03-01T05:40:19.255Z,73.13
2023-03-01T05:42:50.208Z,73.34
2023-03-01T05:45:18.382Z,73.42
2023-03-01T05:47:47.378Z,73.60
2023-03-01T05:50:14.338Z,73.49
2023-03-01T05:52:41.644Z,73.24
2023-03-01T05:55:09.316Z,73.19
2023-03-01T05:57:36.305Z,72.95
2023-03-01T06:00:04.256Z,72.80
2023-03-01T06:02:41.023Z,71.96
2023-03-01T06:05:10.208Z,71.65
2023-03-01T06:07:37.649Z,71.83
2023-03-01T06:10:05.966Z,71.22
2023-03-01T06:12:34.335Z,70.54
2023-03-01T06:15:01.818Z,70.27
2023-03-01T06:17:33.901Z,69.99
2023-03-01T06:20:08.372Z,69.62
2023-03-01T06:22:35.578Z,69.22
2023-03-01T06:25:02.718Z,69.51
2023-03-01T06:27:32.913Z,68.88
2023-03-01T06:30:00.208Z,69.07
2023-03-01T06:32:27.381Z,68.64
2023-03-01T06:34:55.635Z,68.51
2023-03-01T06:37:22.698Z,68.30
2023-03-01T06:39:50.532Z,68.18
2023-03-01T06:42:17.691Z,68.16
2023-03-01T06:44:45.580Z,67.55
2023-03-01T06:47:12.607Z,67.10
2023-03-01T06:49:39.673Z,66.71
2023-03-01T06:52:06.645Z,66.02
2023-03-01T06:54:35.068Z,65.93
2023-03-01T06:57:02.031Z,65.42
2023-03-01T06:59:29.084Z,65.58
2023-03-01T07:01:57.480Z,65.51
2023-03-01T07:04:24.445Z,64.90
2023-03-01T07:06:56.309Z,64.57
2023-03-01T07:09:26.154Z,64.28
2023-03-01T07:11:53.209Z,63.86
2023-03-01T07:14:20.982Z,64.09
2023-03-01T07:16:48.024Z,64.18
2023-03-01T07:19:18.111Z,63.86
2023-03-01T07:21:45.242Z,63.70
2023-03-01T07:24:12.421Z,63.43
2023-03-01T07:26:39.586Z,63.20
2023-03-01T07:29:08.129Z,63.76
2023-03-01T07:31:36.065Z,63.99
2023-03-01T07:34:03.036Z,64.02
2023-03-01T07:36:30.321Z,63.98
2023-03-01T07:38:57.992Z,62.76
2023-03-01T07:41:25.160Z,62.33
2023-03-01T07:43:52.176Z,62.41
2023-03-01T07:46:20.325Z,62.31
2023-03-01T07:48:47.574Z,61.71
2023-03-01T07:51:14.824Z,60.94
2023-03-01T07:53:41.740Z,60.83
2023-03-01T07:56:13.162Z,59.95
2023-03-01T07:58:42.476Z,59.16
2023-03-01T08:01:12.465Z,58.73
2023-03-01T08:03:39.764Z,58.44
2023-03-01T08:06:09.758Z,58.11
2023-03-01T08:08:37.368Z,57.01
2023-03-01T08:11:05.952Z,55.39
2023-03-01T08:13:33.255Z,55.39
2023-03-01T08:16:08.083Z,54.73
2023-03-01T08:18:35.263Z,54.06
2023-03-01T08:21:04.316Z,54.34
2023-03-01T08:23:31.430Z,53.64
2023-03-01T08:26:24.820Z,51.60
2023-03-01T08:28:51.999Z,50.72
2023-03-01T08:31:25.703Z,50.07
2023-03-01T08:33:58.716Z,50.41
2023-03-01T08:36:31.476Z,50.03
2023-03-01T08:38:59.507Z,49.72
2023-03-01T08:41:26.522Z,49.27
2023-03-01T08:43:54.105Z,48.60
2023-03-01T08:46:21.080Z,47.96
2023-03-01T08:48:48.095Z,47.92
2023-03-01T08:51:20.193Z,47.33
2023-03-01T08:53:49.870Z,47.25
2023-03-01T08:56:17.889Z,46.41
2023-03-01T08:58:47.154Z,45.82
2023-03-01T09:01:17.887Z,45.36
2023-03-01T09:03:45.662Z,44.26
2023-03-01T09:06:13.313Z,44.32
2023-03-01T09:08:45.300Z,43.67
2023-03-01T09:11:14.497Z,44.40
2023-03-01T09:13:44.218Z,44.44
2023-03-01T09:16:12.636Z,43.29
2023-03-01T09:18:39.846Z,43.40
2023-03-01T09:21:09.258Z,43.41
2023-03-01T09:23:40.190Z,42.23
2023-03-01T09:26:10.055Z,40.22
2023-03-01T09:28:37.942Z,42.94
2023-03-01T09:31:05.581Z,42.98
2023-03-01T09:33:34.024Z,43.21
2023-03-01T09:36:02.978Z,45.82
2023-03-01T09:38:30.404Z,45.75
2023-03-01T09:40:57.633Z,47.13
2023-03-01T09:46:15.168Z,44.30
2023-03-01T09:48:52.500Z,43.01
2023-03-01T09:51:30.601Z,41.11
2023-03-01T09:53:59.848Z,39.83
2023-03-01T09:56:47.654Z,39.33
2023-03-01T09:59:14.616Z,40.31
2023-03-01T10:01:58.749Z,40.97
2023-03-01T10:04:30.229Z,43.38
2023-03-01T10:07:12.540Z,46.73
2023-03-01T10:09:44.744Z,47.78
2023-03-01T10:12:15.424Z,48.19
2023-03-01T10:14:52.885Z,48.41
2023-03-01T10:17:27.565Z,50.29
2023-03-01T10:19:55.063Z,50.17
2023-03-01T10:22:30.272Z,50.60
2023-03-01T10:25:00.122Z,51.40
2023-03-01T10:27:32.895Z,52.43
2023-03-01T10:30:02.908Z,52.33
2023-03-01T10:32:33.764Z,49.66
2023-03-01T10:35:00.925Z,49.51
2023-03-01T10:37:29.462Z,49.46
2023-03-01T10:39:57.600Z,49.46
2023-03-01T10:42:32.593Z,51.16
2023-03-01T10:45:17.524Z,51.98
2023-03-01T10:47:44.751Z,51.60
2023-03-01T10:50:23.349Z,50.59
2023-03-01T10:53:02.052Z,48.49
2023-03-01T10:55:37.896Z,48.67
2023-03-01T10:58:23.333Z,48.56
2023-03-01T11:00:58.779Z,49.83
2023-03-01T11:03:30.727Z,49.07
2023-03-01T11:06:12.944Z,48.87
2023-03-01T11:08:40.058Z,49.48
2023-03-01T11:11:19.112Z,51.01
2023-03-01T11:14:25.924Z,51.88
2023-03-01T11:17:13.812Z,50.17
2023-03-01T11:19:41.625Z,44.22
2023-03-01T11:22:14.090Z,41.02
2023-03-01T11:25:08.760Z,39.12
2023-03-01T11:27:40.338Z,37.29
2023-03-01T11:30:35.188Z,36.49
2023-03-01T11:33:47.780Z,35.75
2023-03-01T11:36:25.724Z,37.33
2023-03-01T11:38:54.633Z,36.46
2023-03-01T11:41:32.021Z,35.00
2023-03-01T11:44:01.856Z,35.22
2023-03-01T11:46:48.261Z,33.21
2023-03-01T11:49:18.162Z,35.77
2023-03-01T11:52:03.823Z,35.75
2023-03-01T11:54:43.001Z,35.57
2023-03-01T11:57:43.360Z,35.38
2023-03-01T12:00:29.726Z,38.75
2023-03-01T12:03:19.494Z,37.69
2023-03-01T12:06:08.185Z,36.79
2023-03-01T12:09:03.095Z,38.62
2023-03-01T12:11:50.043Z,39.78
2023-03-01T12:14:53.556Z,40.65
2023-03-01T12:17:39.367Z,39.96
2023-03-01T12:20:29.098Z,38.68
2023-03-01T12:23:27.171Z,41.46
2023-03-01T12:26:12.032Z,42.91
2023-03-01T12:28:40.201Z,41.86
2023-03-01T12:31:34.091Z,43.76
2023-03-01T12:34:36.363Z,45.17
2023-03-01T12:37:09.456Z,45.20
2023-03-01T12:39:58.224Z,44.27
2023-03-01T12:42:50.157Z,44.38
2023-03-01T12:45:44.466Z,44.90
2023-03-01T12:48:30.343Z,44.72
2023-03-01T12:51:01.562Z,46.76
2023-03-01T12:53:32.686Z,47.93
2023-03-01T12:56:08.748Z,47.69
2023-03-01T12:58:50.835Z,47.01
2023-03-01T13:02:07.131Z,47.79
2023-03-01T13:05:00.091Z,48.41
2023-03-01T13:07:58.180Z,48.89
2023-03-01T13:10:42.363Z,49.48
2023-03-01T13:13:09.398Z,49.26
2023-03-01T13:15:38.326Z,49.66
2023-03-01T13:18:17.634Z,50.23
2023-03-01T13:20:44.844Z,49.87
2023-03-01T13:23:25.880Z,49.89
2023-03-01T13:26:08.900Z,50.43
2023-03-01T13:28:45.113Z,50.60
2023-03-01T13:31:32.347Z,50.85
2023-03-01T13:34:08.654Z,50.71
2023-03-01T13:36:37.256Z,50.60
2023-03-01T13:39:29.119Z,50.89
2023-03-01T13:41:58.663Z,51.57
2023-03-01T13:44:27.431Z,51.91
2023-03-01T13:46:58.353Z,52.60
2023-03-01T13:49:45.686Z,53.11
2023-03-01T13:52:32.193Z,51.17
2023-03-01T13:54:59.624Z,51.73
2023-03-01T13:57:37.137Z,52.32
2023-03-01T14:00:06.922Z,52.57
2023-03-01T14:02:37.297Z,52.59
2023-03-01T14:05:08.491Z,51.73
2023-03-01T14:07:37.890Z,52.56
2023-03-01T14:10:06.870Z,52.76
2023-03-01T14:12:53.326Z,53.12
2023-03-01T14:15:40.440Z,53.13
2023-03-01T14:18:43.164Z,53.44
2023-03-01T14:21:10.440Z,53.03
2023-03-01T14:23:39.793Z,53.07
2023-03-01T14:26:06.931Z,53.44
2023-03-01T14:28:39.973Z,53.88
2023-03-01T14:31:38.437Z,54.50
2023-03-01T14:34:23.322Z,54.82
2023-03-01T14:36:50.833Z,55.66
2023-03-01T14:39:27.544Z,56.23
2023-03-01T14:41:55.038Z,56.80
2023-03-01T14:44:25.738Z,57.26
2023-03-01T14:46:55.424Z,57.49
2023-03-01T14:49:31.379Z,57.65
2023-03-01T14:52:06.173Z,58.32
2023-03-01T14:54:42.392Z,58.59
2023-03-01T14:57:22.915Z,59.58
2023-03-01T14:59:51.952Z,59.95
2023-03-01T15:02:21.326Z,60.45
2023-03-01T15:04:50.902Z,61.47
2023-03-01T15:07:21.201Z,62.35
2023-03-01T15:09:49.194Z,62.58
2023-03-01T15:12:29.324Z,62.88
2023-03-01T15:15:04.419Z,62.88
2023-03-01T15:17:33.798Z,62.99
2023-03-01T15:20:01.349Z,63.01
2023-03-01T15:22:28.481Z,63.18
2023-03-01T15:24:55.864Z,63.37
2023-03-01T15:27:25.338Z,63.97
2023-03-01T15:30:03.491Z,63.92
2023-03-01T15:32:35.124Z,64.03
2023-03-01T15:35:41.920Z,64.35
2023-03-01T15:38:55.442Z,64.42
2023-03-01T15:41:34.479Z,64.55
2023-03-01T15:44:04.901Z,64.68
2023-03-01T15:46:38.871Z,64.92
2023-03-01T15:49:07.879Z,64.93
2023-03-01T15:51:36.686Z,64.85
2023-03-01T15:54:14.820Z,65.26
2023-03-01T15:56:41.771Z,65.73
2023-03-01T15:59:12.919Z,65.89
2023-03-01T16:01:40.318Z,66.29
2023-03-01T16:04:07.619Z,66.62
2023-03-01T16:06:34.729Z,66.84
2023-03-01T16:09:01.850Z,67.40
2023-03-01T16:11:28.878Z,67.62
2023-03-01T16:13:56.070Z,67.99
2023-03-01T16:16:23.774Z,68.12
2023-03-01T16:18:51.649Z,68.32
2023-03-01T16:21:24.792Z,68.45
2023-03-01T16:23:52.630Z,68.48
2023-03-01T16:26:21.490Z,68.96
2023-03-01T16:28:49.200Z,69.00
2023-03-01T16:31:20.272Z,69.28
2023-03-01T16:33:50.766Z,69.13
2023-03-01T16:36:20.275Z,67.92
2023-03-01T16:38:53.654Z,68.03
2023-03-01T16:41:24.423Z,68.48
2023-03-01T16:43:52.197Z,68.32
2023-03-01T16:46:21.811Z,67.93
2023-03-01T16:48:51.496Z,68.10
2023-03-01T16:51:19.227Z,68.34
2023-03-01T16:53:47.498Z,68.78
2023-03-01T16:56:15.309Z,68.74
2023-03-01T16:58:42.825Z,68.78
2023-03-01T17:01:12.332Z,69.25
2023-03-01T17:03:40.320Z,69.60
2023-03-01T17:06:11.403Z,69.62
2023-03-01T17:08:39.362Z,69.74
2023-03-01T17:11:08.543Z,70.00
2023-03-01T17:13:36.836Z,70.09
2023-03-01T17:16:09.469Z,70.20
2023-03-01T17:18:37.549Z,70.05
2023-03-01T17:21:05.430Z,70.15
2023-03-01T17:23:34.076Z,70.19
2023-03-01T17:26:01.242Z,70.60
2023-03-01T17:28:30.758Z,71.14
2023-03-01T17:30:57.812Z,71.43
2023-03-01T17:33:24.807Z,71.86
2023-03-01T17:35:52.250Z,72.02
2023-03-01T17:38:20.095Z,71.94
2023-03-01T17:40:49.152Z,72.47
2023-03-01T17:43:17.238Z,72.38
2023-03-01T17:45:48.735Z,72.49
2023-03-01T17:48:17.368Z,72.53
2023-03-01T17:50:47.095Z,72.81
2023-03-01T17:53:14.874Z,72.48
2023-03-01T17:55:43.050Z,72.55
2023-03-01T17:58:12.519Z,72.64
2023-03-01T18:00:40.564Z,72.30
2023-03-01T18:03:07.729Z,72.20
2023-03-01T18:05:36.526Z,72.30
2023-03-01T18:08:03.804Z,72.21
2023-03-01T18:10:32.039Z,72.37
2023-03-01T18:12:59.795Z,72.13
2023-03-01T18:15:27.552Z,72.42
2023-03-01T18:17:54.850Z,72.59
2023-03-01T18:20:22.160Z,72.76
2023-03-01T18:22:51.061Z,72.87
2023-03-01T18:25:18.273Z,72.90
2023-03-01T18:27:46.003Z,72.77
2023-03-01T18:30:14.346Z,72.72
2023-03-01T18:32:41.294Z,72.69
2023-03-01T18:35:08.680Z,72.39
2023-03-01T18:37:35.687Z,72.27
2023-03-01T18:40:02.660Z,72.26
2023-03-01T18:42:30.252Z,72.69
2023-03-01T18:44:57.438Z,72.66
2023-03-01T18:47:24.368Z,72.64
2023-03-01T18:49:51.455Z,72.88
2023-03-01T18:52:18.572Z,72.57
2023-03-01T18:54:45.515Z,72.23
2023-03-01T18:57:12.505Z,72.02
2023-03-01T18:59:41.040Z,72.15
2023-03-01T19:02:08.323Z,72.31
2023-03-01T19:04:35.357Z,72.24
2023-03-01T19:07:02.375Z,72.25
2023-03-01T19:09:29.435Z,72.43
2023-03-01T19:11:59.025Z,72.46
2023-03-01T19:14:26.136Z,72.60
2023-03-01T19:16:53.384Z,72.74
2023-03-01T19:19:20.369Z,72.54
2023-03-01T19:21:59.290Z,72.63
2023-03-01T19:24:31.699Z,72.65
2023-03-01T19:26:59.323Z,73.15
2023-03-01T19:29:26.575Z,72.97
2023-03-01T19:31:53.560Z,72.85
2023-03-01T19:34:23.173Z,72.87
2023-03-01T19:36:50.296Z,72.93
2023-03-01T19:39:17.477Z,73.52
2023-03-01T19:41:44.770Z,73.66
2023-03-01T19:44:12.444Z,73.57
2023-03-01T19:46:39.990Z,73.77
2023-03-01T19:49:07.959Z,73.65
2023-03-01T19:51:36.895Z,73.89
2023-03-01T19:54:06.060Z,73.80
2023-03-01T19:56:34.490Z,74.04
2023-03-01T19:59:04.480Z,74.26
2023-03-01T20:01:33.232Z,74.35
2023-03-01T20:04:03.504Z,74.66
2023-03-01T20:06:31.559Z,74.69
2023-03-01T20:09:00.728Z,74.97
2023-03-01T20:11:30.071Z,75.27
2023-03-01T20:13:57.128Z,74.91
2023-03-01T20:16:26.504Z,75.14
2023-03-01T20:18:54.073Z,75.65
2023-03-01T20:21:24.932Z,76.22
2023-03-01T20:23:52.397Z,76.58
2023-03-01T20:26:20.793Z,77.06
2023-03-01T20:28:49.516Z,78.03
2023-03-01T20:31:18.273Z,78.61
2023-03-01T20:33:46.076Z,78.88
2023-03-01T20:36:16.384Z,79.28
2023-03-01T20:38:48.109Z,79.47
2023-03-01T20:41:20.365Z,79.90
2023-03-01T20:43:57.308Z,80.29
2023-03-01T20:46:27.155Z,81.07
2023-03-01T20:48:54.722Z,81.69
2023-03-01T20:51:22.235Z,81.93
2023-03-01T20:53:52.407Z,82.55
2023-03-01T20:56:21.558Z,83.33
2023-03-01T20:59:05.807Z,83.82
2023-03-01T21:01:32.943Z,84.47
2023-03-01T21:04:00.292Z,85.19
2023-03-01T21:06:27.502Z,85.94
2023-03-01T21:08:56.537Z,86.52
2023-03-01T21:11:27.160Z,87.25
2023-03-01T21:13:55.076Z,87.78
2023-03-01T21:16:23.293Z,88.07
2023-03-01T21:18:50.458Z,88.05
2023-03-01T21:21:24.243Z,88.53
2023-03-01T21:23:52.659Z,88.62
2023-03-01T21:26:22.502Z,88.69
2023-03-01T21:28:51.766Z,89.06
2023-03-01T21:31:22.509Z,89.08
2023-03-01T21:33:51.701Z,88.80
2023-03-01T21:36:19.765Z,89.00
2023-03-01T21:38:48.271Z,88.88
2023-03-01T21:41:25.096Z,88.40
2023-03-01T21:43:54.683Z,88.28
2023-03-01T21:46:24.311Z,87.88
2023-03-01T21:48:52.957Z,87.77
2023-03-01T21:51:21.826Z,87.99
2023-03-01T21:53:50.683Z,88.10
2023-03-01T21:56:23.332Z,88.27
2023-03-01T21:58:50.751Z,88.40
2023-03-01T22:01:21.393Z,88.41
2023-03-01T22:03:48.535Z,88.22
2023-03-01T22:06:19.655Z,87.87
2023-03-01T22:08:55.572Z,87.53
2023-03-01T22:11:24.224Z,87.29
2023-03-01T22:13:52.528Z,87.25
2023-03-01T22:16:21.289Z,86.98
2023-03-01T22:18:48.846Z,87.12
2023-03-01T22:21:16.240Z,87.12
2023-03-01T22:23:43.358Z,87.05
2023-03-01T22:26:24.621Z,87.03
2023-03-01T22:28:52.527Z,86.98
2023-03-01T22:31:19.618Z,86.96
2023-03-01T22:33:47.458Z,87.00
2023-03-01T22:36:14.677Z,87.29
2023-03-01T22:38:42.031Z,87.13
2023-03-01T22:41:09.206Z,87.29
2023-03-01T22:43:36.579Z,87.34
2023-03-01T22:46:18.506Z,87.58
2023-03-01T22:48:46.312Z,87.45
2023-03-01T22:51:28.216Z,87.53
2023-03-01T22:53:55.698Z,87.48
2023-03-01T22:56:25.003Z,87.29
2023-03-01T22:58:52.054Z,87.43
2023-03-01T23:01:22.471Z,87.44
2023-03-01T23:03:49.893Z,87.16
2023-03-01T23:06:18.823Z,87.32
2023-03-01T23:08:53.118Z,87.30
2023-03-01T23:11:21.182Z,87.46
2023-03-01T23:13:48.737Z,87.35
2023-03-01T23:16:16.258Z,87.63
2023-03-01T23:18:43.491Z,87.52
2023-03-01T23:21:19.153Z,87.31
2023-03-01T23:23:50.025Z,87.61
2023-03-01T23:26:18.678Z,87.51
2023-03-01T23:28:45.755Z,87.40
2023-03-01T23:31:15.011Z,87.62
2023-03-01T23:33:46.140Z,87.56
2023-03-01T23:36:22.663Z,87.76
2023-03-01T23:38:51.735Z,87.46
2023-03-01T23:41:21.306Z,87.43
2023-03-01T23:43:51.263Z,87.70
2023-03-01T23:46:21.130Z,87.56
2023-03-01T23:48:50.006Z,87.67
2023-03-01T23:51:20.483Z,87.42
2023-03-01T23:53:54.769Z,87.56
2023-03-01T23:56:30.539Z,87.68
2023-03-01T23:59:01.044Z,87.41
